aviador You're here:

OIMB Decoded Metar

BIRJAND in IRAN
Report Time2018-02-22 08:00:00
UTC Time2018-02-22 08:51:56
Flight Rules vfr VFR
Wind320° at 04 kt
W.Decomp.*RWY 28: 3.2 kt HW 2.5 kt RCW
RWY 26: 2.1 kt HW 3.4 kt RCW
W.Rank320° ranks 24
Current wind is below 320° avg. (8.8)
Visibility9999 m
Phenomena:N/A
Clouds:N/A
Expected CloudBase > 10,400 ft AGL from Temp-Dew spread
CeilingNone
Temp19°C (ISA +14)
Dew Point-7°C (17% RH)
AAT14.8°C
QNH1016 hPa
Density Alt6,430 ft
Elevation4,892 ft
Report Wrong Elevation
Raw Report
METAR OIMB 220800Z 32004KT CAVOK 19/M07 Q1016=

Extra information for OIMB:More info

Metar Taf Metar & Taf Last 4 Metars F.Rules Stats Wind Profile Meteogram Temp Stats Airport Information Weather charts Add Link Nearby VenuesMetar ALERT Operation Metar Decoded Social comments